createdAt,value
2023-04-12T00:00:58.016Z,1.45
2023-04-12T00:03:25.378Z,1.40
2023-04-12T00:05:55.675Z,1.80
2023-04-12T00:08:33.166Z,1.33
2023-04-12T00:11:00.927Z,1.60
2023-04-12T00:13:28.275Z,1.60
2023-04-12T00:15:55.054Z,1.80
2023-04-12T00:18:25.390Z,1.60
2023-04-12T00:20:52.985Z,1.92
2023-04-12T00:23:20.223Z,2.05
2023-04-12T00:25:47.409Z,1.48
2023-04-12T00:28:16.107Z,1.80
2023-04-12T00:30:43.850Z,1.95
2023-04-12T00:33:10.567Z,1.90
2023-04-12T00:35:37.334Z,1.90
2023-04-12T00:38:06.268Z,2.20
2023-04-12T00:40:33.119Z,2.08
2023-04-12T00:43:00.576Z,1.55
2023-04-12T00:45:27.417Z,1.63
2023-04-12T00:47:54.956Z,1.60
2023-04-12T00:50:23.242Z,1.73
2023-04-12T00:52:52.050Z,1.50
2023-04-12T00:55:18.937Z,1.77
2023-04-12T00:57:45.617Z,1.83
2023-04-12T01:00:12.900Z,1.80
2023-04-12T01:02:42.822Z,1.63
2023-04-12T01:05:14.800Z,2.05
2023-04-12T01:07:54.366Z,1.90
2023-04-12T01:10:36.741Z,1.65
2023-04-12T01:13:12.390Z,1.42
2023-04-12T01:15:45.497Z,1.75
2023-04-12T01:18:22.214Z,1.70
2023-04-12T01:21:03.828Z,1.50
2023-04-12T01:23:58.181Z,1.75
2023-04-12T01:26:44.899Z,1.35
2023-04-12T01:29:15.682Z,1.50
2023-04-12T01:31:51.590Z,1.35
2023-04-12T01:34:19.904Z,1.42
2023-04-12T01:36:48.130Z,1.85
2023-04-12T01:39:15.469Z,1.90
2023-04-12T01:41:45.422Z,2.65
2023-04-12T01:44:16.683Z,3.55
2023-04-12T01:46:44.783Z,3.20
2023-04-12T01:49:13.056Z,2.70
2023-04-12T01:51:50.941Z,2.95
2023-04-12T01:54:31.062Z,3.58
2023-04-12T01:57:01.325Z,2.95
2023-04-12T01:59:43.479Z,2.92
2023-04-12T02:02:12.035Z,2.28
2023-04-12T02:04:39.884Z,1.95
2023-04-12T02:07:06.657Z,2.05
2023-04-12T02:09:39.863Z,2.72
2023-04-12T02:12:07.854Z,2.28
2023-04-12T02:14:36.929Z,2.03
2023-04-12T02:17:05.709Z,2.88
2023-04-12T02:19:33.020Z,2.63
2023-04-12T02:21:59.881Z,2.25
2023-04-12T02:24:29.123Z,2.75
2023-04-12T02:26:56.469Z,2.88
2023-04-12T02:29:25.052Z,2.60
2023-04-12T02:31:52.496Z,3.50
2023-04-12T02:34:21.429Z,2.88
2023-04-12T02:36:54.438Z,3.08
2023-04-12T02:39:22.224Z,2.72
2023-04-12T02:41:51.117Z,2.83
2023-04-12T02:44:17.855Z,2.78
2023-04-12T02:46:54.756Z,2.70
2023-04-12T02:49:22.154Z,3.08
2023-04-12T02:51:49.382Z,2.75
2023-04-12T02:54:21.282Z,2.88
2023-04-12T02:56:54.116Z,3.00
2023-04-12T02:59:34.848Z,2.78
2023-04-12T03:02:15.618Z,2.40
2023-04-12T03:04:46.943Z,2.47
2023-04-12T03:07:19.679Z,2.65
2023-04-12T03:09:50.796Z,2.80
2023-04-12T03:12:19.952Z,2.50
2023-04-12T03:15:04.849Z,2.78
2023-04-12T03:17:31.932Z,2.97
2023-04-12T03:20:09.616Z,2.90
2023-04-12T03:22:39.306Z,3.63
2023-04-12T03:25:10.088Z,3.33
2023-04-12T03:27:41.313Z,3.25
2023-04-12T03:30:08.935Z,3.58
2023-04-12T03:32:39.038Z,3.53
2023-04-12T03:35:09.287Z,3.78
2023-04-12T03:37:40.796Z,3.03
2023-04-12T03:40:08.568Z,3.38
2023-04-12T03:42:35.506Z,3.97
2023-04-12T03:45:12.342Z,3.35
2023-04-12T03:47:42.560Z,3.47
2023-04-12T03:50:12.412Z,3.92
2023-04-12T03:52:44.206Z,3.88
2023-04-12T03:55:12.340Z,4.03
2023-04-12T03:57:46.955Z,3.53
2023-04-12T04:00:14.700Z,3.47
2023-04-12T04:03:06.361Z,3.63
2023-04-12T04:05:40.634Z,3.38
2023-04-12T04:08:08.380Z,3.90
2023-04-12T04:10:57.005Z,4.10
2023-04-12T04:13:28.585Z,3.47
2023-04-12T04:16:03.724Z,3.85
2023-04-12T04:18:31.452Z,3.40
2023-04-12T04:20:59.193Z,4.10
2023-04-12T04:23:29.197Z,3.70
2023-04-12T04:25:57.514Z,3.80
2023-04-12T04:28:25.336Z,3.35
2023-04-12T04:30:55.680Z,3.63
2023-04-12T04:33:23.466Z,3.30
2023-04-12T04:35:52.337Z,3.58
2023-04-12T04:38:27.343Z,3.47
2023-04-12T04:41:03.519Z,3.00
2023-04-12T04:43:46.893Z,3.60
2023-04-12T04:46:15.135Z,3.60
2023-04-12T04:48:42.080Z,3.60
2023-04-12T04:51:09.066Z,3.88
2023-04-12T04:53:36.725Z,3.70
2023-04-12T04:56:03.482Z,3.30
2023-04-12T04:58:34.054Z,4.38
2023-04-12T05:01:00.905Z,3.70
2023-04-12T05:03:30.821Z,3.30
2023-04-12T05:05:58.881Z,3.03
2023-04-12T05:08:25.700Z,3.10
2023-04-12T05:10:53.277Z,3.55
2023-04-12T05:13:22.302Z,3.03
2023-04-12T05:15:49.784Z,3.10
2023-04-12T05:18:17.941Z,2.90
2023-04-12T05:20:45.746Z,2.55
2023-04-12T05:23:12.478Z,3.55
2023-04-12T05:25:44.475Z,3.10
2023-04-12T05:28:14.392Z,3.80
2023-04-12T05:30:41.848Z,3.50
2023-04-12T05:33:10.144Z,4.10
2023-04-12T05:35:42.681Z,3.40
2023-04-12T05:38:11.155Z,3.00
2023-04-12T05:40:38.742Z,3.17
2023-04-12T05:43:08.651Z,3.13
2023-04-12T05:45:35.552Z,2.70
2023-04-12T05:48:02.290Z,2.92
2023-04-12T05:50:29.889Z,3.17
2023-04-12T05:52:56.797Z,3.17
2023-04-12T05:55:28.979Z,3.42
2023-04-12T05:57:56.120Z,2.75
2023-04-12T06:00:23.584Z,2.70
2023-04-12T06:02:51.776Z,2.50
2023-04-12T06:05:18.835Z,2.72
2023-04-12T06:07:49.397Z,2.85
2023-04-12T06:10:17.669Z,3.17
2023-04-12T06:12:48.173Z,3.88
2023-04-12T06:15:14.994Z,3.90
2023-04-12T06:17:41.926Z,5.25
2023-04-12T06:20:09.766Z,5.20
2023-04-12T06:22:38.581Z,4.55
2023-04-12T06:25:06.813Z,3.35
2023-04-12T06:27:33.562Z,3.85
2023-04-12T06:30:00.340Z,3.22
2023-04-12T06:32:27.515Z,2.55
2023-04-12T06:34:55.077Z,2.80
2023-04-12T06:37:22.236Z,2.13
2023-04-12T06:39:49.173Z,2.53
2023-04-12T06:42:16.151Z,2.17
2023-04-12T06:44:42.804Z,2.03
2023-04-12T06:47:09.655Z,2.13
2023-04-12T06:49:36.497Z,2.40
2023-04-12T06:52:03.257Z,1.98
2023-04-12T06:54:30.259Z,2.38
2023-04-12T06:56:57.759Z,2.65
2023-04-12T06:59:24.581Z,2.58
2023-04-12T07:01:51.333Z,3.05
2023-04-12T07:04:18.185Z,2.78
2023-04-12T07:06:44.854Z,2.72
2023-04-12T07:09:11.539Z,2.47
2023-04-12T07:11:38.441Z,2.20
2023-04-12T07:14:05.152Z,2.42
2023-04-12T07:16:32.732Z,2.20
2023-04-12T07:19:00.963Z,2.30
2023-04-12T07:21:28.226Z,2.00
2023-04-12T07:23:56.002Z,2.20
2023-04-12T07:26:23.570Z,2.22
2023-04-12T07:28:50.348Z,2.08
2023-04-12T07:31:17.486Z,2.60
2023-04-12T07:33:44.402Z,2.25
2023-04-12T07:36:11.986Z,2.33
2023-04-12T07:38:38.797Z,2.47
2023-04-12T07:41:05.561Z,2.67
2023-04-12T07:43:32.336Z,2.75
2023-04-12T07:45:59.683Z,2.90
2023-04-12T07:48:26.417Z,2.90
2023-04-12T07:50:53.202Z,3.42
2023-04-12T07:53:21.080Z,2.55
2023-04-12T07:55:48.583Z,2.10
2023-04-12T07:58:17.051Z,2.28
2023-04-12T08:00:44.841Z,2.22
2023-04-12T08:03:18.682Z,2.55
2023-04-12T08:05:46.682Z,2.40
2023-04-12T08:08:13.359Z,2.58
2023-04-12T08:10:40.508Z,2.25
2023-04-12T08:13:07.559Z,2.35
2023-04-12T08:15:34.482Z,2.70
2023-04-12T08:18:02.066Z,1.90
2023-04-12T08:20:29.133Z,1.92
2023-04-12T08:22:55.916Z,1.80
2023-04-12T08:25:22.774Z,1.92
2023-04-12T08:27:51.390Z,2.00
2023-04-12T08:30:18.966Z,1.73
2023-04-12T08:32:46.075Z,2.03
2023-04-12T08:35:12.761Z,2.00
2023-04-12T08:37:39.430Z,2.67
2023-04-12T08:40:07.429Z,2.47
2023-04-12T08:42:38.374Z,2.13
2023-04-12T08:45:06.969Z,2.38
2023-04-12T08:47:39.329Z,2.22
2023-04-12T08:52:38.201Z,2.50
2023-04-12T08:55:09.423Z,2.80
2023-04-12T08:57:39.837Z,2.08
2023-04-12T09:00:10.081Z,2.10
2023-04-12T09:02:38.762Z,2.55
2023-04-12T09:05:06.786Z,3.70
2023-04-12T09:07:34.249Z,2.60
2023-04-12T09:10:01.094Z,2.78
2023-04-12T09:12:28.018Z,2.85
2023-04-12T09:15:15.624Z,2.88
2023-04-12T09:17:42.947Z,3.03
2023-04-12T09:20:12.753Z,3.63
2023-04-12T09:22:44.456Z,3.38
2023-04-12T09:25:12.417Z,3.20
2023-04-12T09:27:49.635Z,3.15
2023-04-12T09:30:17.808Z,3.28
2023-04-12T09:32:45.360Z,3.20
2023-04-12T09:35:12.147Z,3.38
2023-04-12T09:37:40.307Z,3.10
2023-04-12T09:40:09.399Z,2.92
2023-04-12T09:42:51.744Z,2.95
2023-04-12T09:45:24.441Z,3.30
2023-04-12T09:47:52.035Z,3.42
2023-04-12T09:50:23.766Z,3.35
2023-04-12T09:52:51.000Z,3.38
2023-04-12T09:55:18.217Z,3.50
2023-04-12T09:57:45.618Z,3.95
2023-04-12T10:00:20.398Z,3.30
2023-04-12T10:02:55.918Z,3.53
2023-04-12T10:05:26.604Z,3.70
2023-04-12T10:07:55.248Z,3.33
2023-04-12T10:10:23.170Z,3.67
2023-04-12T10:12:50.476Z,3.90
2023-04-12T10:15:18.569Z,3.80
2023-04-12T10:17:49.269Z,3.75
2023-04-12T10:20:17.824Z,3.90
2023-04-12T10:22:52.400Z,3.53
2023-04-12T10:25:25.341Z,4.50
2023-04-12T10:27:52.181Z,4.28
2023-04-12T10:30:27.144Z,3.97
2023-04-12T10:33:03.056Z,4.28
2023-04-12T10:35:31.652Z,4.30
2023-04-12T10:37:59.867Z,3.92
2023-04-12T10:40:26.703Z,3.47
2023-04-12T10:43:30.598Z,3.67
2023-04-12T10:45:59.050Z,3.65
2023-04-12T10:48:37.094Z,4.28
2023-04-12T10:51:14.164Z,3.95
2023-04-12T10:53:41.157Z,3.60
2023-04-12T10:56:33.037Z,3.88
2023-04-12T10:59:04.630Z,4.57
2023-04-12T11:01:39.459Z,3.90
2023-04-12T11:04:06.632Z,4.13
2023-04-12T11:06:43.370Z,4.45
2023-04-12T11:09:42.158Z,4.10
2023-04-12T11:12:11.128Z,3.85
2023-04-12T11:14:42.665Z,4.40
2023-04-12T11:17:09.438Z,3.73
2023-04-12T11:19:51.627Z,3.80
2023-04-12T11:22:20.841Z,3.80
2023-04-12T11:24:49.824Z,3.63
2023-04-12T11:27:17.170Z,3.85
2023-04-12T11:29:44.547Z,4.45
2023-04-12T11:32:14.186Z,3.78
2023-04-12T11:34:43.449Z,3.78
2023-04-12T11:37:10.495Z,3.42
2023-04-12T11:39:40.585Z,3.75
2023-04-12T11:42:08.824Z,3.53
2023-04-12T11:44:54.506Z,4.10
2023-04-12T11:47:24.775Z,3.92
2023-04-12T11:49:58.688Z,3.58
2023-04-12T11:52:30.895Z,3.38
2023-04-12T11:57:28.977Z,3.38
2023-04-12T11:59:57.578Z,3.42
2023-04-12T12:02:27.981Z,3.05
2023-04-12T12:04:57.565Z,3.08
2023-04-12T12:07:25.103Z,3.72
2023-04-12T12:09:52.126Z,3.67
2023-04-12T12:12:18.875Z,2.78
2023-04-12T12:14:48.771Z,2.88
2023-04-12T12:17:17.150Z,2.92
2023-04-12T12:19:45.546Z,2.60
2023-04-12T12:22:17.279Z,2.65
2023-04-12T12:24:58.324Z,2.45
2023-04-12T12:27:35.588Z,2.30
2023-04-12T12:30:04.575Z,2.30
2023-04-12T12:32:37.098Z,1.92
2023-04-12T12:35:09.537Z,1.80
2023-04-12T12:40:13.717Z,1.90
2023-04-12T12:42:52.056Z,2.00
2023-04-12T12:45:20.704Z,1.83
2023-04-12T12:47:50.530Z,2.53
2023-04-12T12:50:18.661Z,2.13
2023-04-12T12:52:46.720Z,1.73
2023-04-12T12:55:14.960Z,2.17
2023-04-12T12:57:55.101Z,1.80
2023-04-12T13:00:32.471Z,2.42
2023-04-12T13:02:59.502Z,1.90
2023-04-12T13:05:26.986Z,1.95
2023-04-12T13:07:53.674Z,2.10
2023-04-12T13:10:20.542Z,1.55
2023-04-12T13:12:47.345Z,1.70
2023-04-12T13:17:44.053Z,1.50
2023-04-12T13:20:10.982Z,1.83
2023-04-12T13:22:37.647Z,1.85
2023-04-12T13:25:04.555Z,2.33
2023-04-12T13:27:31.275Z,1.65
2023-04-12T13:29:58.013Z,1.60
2023-04-12T13:32:24.719Z,1.63
2023-04-12T13:34:51.812Z,1.35
2023-04-12T13:37:18.642Z,1.35
2023-04-12T13:39:45.588Z,1.52
2023-04-12T13:42:12.397Z,1.33
2023-04-12T13:44:39.029Z,1.08
2023-04-12T13:47:05.793Z,1.00
2023-04-12T13:49:32.594Z,0.82
2023-04-12T13:51:59.282Z,0.90
2023-04-12T13:54:26.209Z,0.95
2023-04-12T13:56:52.974Z,0.80
2023-04-12T13:59:19.792Z,0.75
2023-04-12T14:01:46.726Z,0.90
2023-04-12T14:04:13.557Z,1.00
2023-04-12T14:06:40.293Z,0.98
2023-04-12T14:09:07.018Z,1.13
2023-04-12T14:11:47.599Z,0.90
2023-04-12T14:14:16.699Z,0.85
2023-04-12T14:16:44.732Z,0.82
2023-04-12T14:19:11.464Z,1.00
2023-04-12T14:21:38.354Z,1.17
2023-04-12T14:24:05.214Z,1.00
2023-04-12T14:26:32.471Z,0.95
2023-04-12T14:28:59.511Z,0.80
2023-04-12T14:31:26.535Z,1.15
2023-04-12T14:33:53.774Z,1.20
2023-04-12T14:36:20.817Z,0.73
2023-04-12T14:38:47.558Z,0.77
2023-04-12T14:41:14.274Z,0.93
2023-04-12T14:43:41.844Z,0.85
2023-04-12T14:46:08.569Z,0.90
2023-04-12T14:48:35.315Z,0.70
2023-04-12T14:51:02.717Z,0.98
2023-04-12T14:53:30.416Z,0.90
2023-04-12T14:55:57.071Z,0.77
2023-04-12T14:58:23.792Z,0.70
2023-04-12T15:00:50.446Z,0.70
2023-04-12T15:03:17.273Z,0.60
2023-04-12T15:05:44.131Z,0.50
2023-04-12T15:08:10.769Z,0.52
2023-04-12T15:10:37.514Z,0.70
2023-04-12T15:13:04.231Z,0.60
2023-04-12T15:15:31.015Z,0.68
2023-04-12T15:17:57.708Z,0.60
2023-04-12T15:20:24.379Z,1.00
2023-04-12T15:22:51.083Z,0.60
2023-04-12T15:25:17.823Z,1.00
2023-04-12T15:27:44.532Z,0.90
2023-04-12T15:30:14.432Z,0.50
2023-04-12T15:32:42.590Z,0.70
2023-04-12T15:35:25.254Z,0.80
2023-04-12T15:37:55.060Z,0.82
2023-04-12T15:40:22.955Z,1.33
2023-04-12T15:42:49.826Z,1.23
2023-04-12T15:45:17.072Z,0.60
2023-04-12T15:47:45.904Z,0.40
2023-04-12T15:50:13.133Z,0.77
2023-04-12T15:52:43.030Z,1.00
2023-04-12T15:55:11.956Z,0.60
2023-04-12T15:57:38.730Z,0.80
2023-04-12T16:00:13.832Z,0.50
2023-04-12T16:02:40.704Z,0.60
2023-04-12T16:05:07.926Z,0.60
2023-04-12T16:07:34.731Z,0.55
2023-04-12T16:10:03.348Z,0.70
2023-04-12T16:12:30.145Z,0.68
2023-04-12T16:14:57.572Z,0.60
2023-04-12T16:17:24.280Z,0.70
2023-04-12T16:19:51.033Z,0.73
2023-04-12T16:22:17.700Z,0.60
2023-04-12T16:24:44.351Z,0.40
2023-04-12T16:27:11.101Z,0.52
2023-04-12T16:29:37.796Z,0.50
2023-04-12T16:32:04.508Z,0.50
2023-04-12T16:34:31.614Z,0.28
2023-04-12T16:36:58.308Z,0.40
2023-04-12T16:39:24.970Z,0.40
2023-04-12T16:41:51.619Z,0.40
2023-04-12T16:44:18.907Z,0.40
2023-04-12T16:46:46.687Z,0.70
2023-04-12T16:49:13.373Z,0.50
2023-04-12T16:51:39.994Z,0.30
2023-04-12T16:54:06.709Z,0.50
2023-04-12T16:56:33.386Z,0.60
2023-04-12T16:59:00.235Z,0.43
2023-04-12T17:01:26.938Z,0.30
2023-04-12T17:03:53.635Z,0.40
2023-04-12T17:06:20.419Z,0.47
2023-04-12T17:08:47.902Z,0.40
2023-04-12T17:11:14.653Z,0.22
2023-04-12T17:13:42.256Z,0.30
2023-04-12T17:16:10.118Z,0.60
2023-04-12T17:18:40.208Z,0.50
2023-04-12T17:21:07.221Z,0.38
2023-04-12T17:23:33.880Z,0.47
2023-04-12T17:26:01.389Z,0.40
2023-04-12T17:28:28.164Z,0.30
2023-04-12T17:30:57.796Z,0.30
2023-04-12T17:33:25.723Z,0.30
2023-04-12T17:35:52.407Z,0.30
2023-04-12T17:38:19.083Z,0.50
2023-04-12T17:40:46.148Z,0.50
2023-04-12T17:43:12.956Z,0.50
2023-04-12T17:45:39.662Z,0.40
2023-04-12T17:48:08.822Z,0.75
2023-04-12T17:50:35.501Z,0.90
2023-04-12T17:53:02.232Z,0.65
2023-04-12T17:55:29.214Z,0.88
2023-04-12T17:57:56.983Z,0.90
2023-04-12T18:00:24.079Z,1.10
2023-04-12T18:02:51.465Z,0.70
2023-04-12T18:05:19.150Z,0.63
2023-04-12T18:07:45.914Z,1.27
2023-04-12T18:10:15.635Z,1.38
2023-04-12T18:12:44.269Z,1.33
2023-04-12T18:15:11.460Z,1.40
2023-04-12T18:17:39.800Z,1.08
2023-04-12T18:20:11.076Z,0.90
2023-04-12T18:22:38.703Z,1.17
2023-04-12T18:25:09.187Z,0.70
2023-04-12T18:27:36.086Z,0.77
2023-04-12T18:30:03.329Z,0.70
2023-04-12T18:32:30.108Z,0.70
2023-04-12T18:34:56.979Z,1.10
2023-04-12T18:37:23.627Z,0.68
2023-04-12T18:39:52.631Z,1.08
2023-04-12T18:42:20.053Z,0.80
2023-04-12T18:44:46.730Z,0.80
2023-04-12T18:47:13.489Z,0.90
2023-04-12T18:49:40.191Z,0.70
2023-04-12T18:52:07.189Z,0.77
2023-04-12T18:54:33.976Z,1.00
2023-04-12T18:57:03.342Z,0.90
2023-04-12T18:59:30.712Z,0.90
2023-04-12T19:01:57.422Z,0.70
2023-04-12T19:04:24.183Z,1.10
2023-04-12T19:06:50.920Z,2.00
2023-04-12T19:09:17.695Z,2.60
2023-04-12T19:11:44.469Z,1.25
2023-04-12T19:14:11.670Z,1.30
2023-04-12T19:16:38.590Z,1.25
2023-04-12T19:19:05.417Z,1.20
2023-04-12T19:21:32.181Z,1.00
2023-04-12T19:23:59.176Z,1.20
2023-04-12T19:26:28.618Z,1.20
2023-04-12T19:28:58.280Z,1.33
2023-04-12T19:31:25.660Z,1.35
2023-04-12T19:33:55.457Z,1.20
2023-04-12T19:36:24.437Z,0.70
2023-04-12T19:38:51.282Z,0.40
2023-04-12T19:41:19.784Z,0.30
2023-04-12T19:43:47.707Z,0.60
2023-04-12T19:46:14.862Z,0.60
2023-04-12T19:48:41.780Z,0.50
2023-04-12T19:51:08.567Z,0.50
2023-04-12T19:53:35.247Z,0.57
2023-04-12T19:56:04.206Z,0.60
2023-04-12T19:58:32.147Z,0.45
2023-04-12T20:01:01.644Z,0.47
2023-04-12T20:03:28.590Z,0.50
2023-04-12T20:05:55.355Z,0.43
2023-04-12T20:08:23.466Z,0.50
2023-04-12T20:10:50.432Z,0.50
2023-04-12T20:13:17.175Z,0.40
2023-04-12T20:15:43.801Z,0.40
2023-04-12T20:18:13.003Z,0.30
2023-04-12T20:20:39.666Z,0.30
2023-04-12T20:23:06.339Z,0.40
2023-04-12T20:25:37.794Z,0.55
2023-04-12T20:28:04.634Z,0.50
2023-04-12T20:30:31.300Z,0.50
2023-04-12T20:32:58.697Z,0.40
2023-04-12T20:35:25.796Z,0.40
2023-04-12T20:37:52.966Z,0.40
2023-04-12T20:40:20.444Z,0.40
2023-04-12T20:42:47.120Z,0.50
2023-04-12T20:45:14.450Z,0.40
2023-04-12T20:47:41.601Z,0.40
2023-04-12T20:50:08.603Z,0.40
2023-04-12T20:52:35.586Z,0.40
2023-04-12T20:55:02.483Z,0.40
2023-04-12T20:57:30.228Z,0.32
2023-04-12T20:59:56.878Z,0.30
2023-04-12T21:02:23.637Z,0.40
2023-04-12T21:04:50.935Z,0.40
2023-04-12T21:07:18.275Z,0.40
2023-04-12T21:09:44.958Z,0.40
2023-04-12T21:12:11.820Z,0.60
2023-04-12T21:14:39.127Z,0.68
2023-04-12T21:17:07.230Z,0.43
2023-04-12T21:19:39.048Z,0.57
2023-04-12T21:22:07.082Z,0.57
2023-04-12T21:24:38.263Z,0.50
2023-04-12T21:27:07.635Z,0.57
2023-04-12T21:29:37.580Z,0.60
2023-04-12T21:32:05.812Z,0.47
2023-04-12T21:34:33.537Z,0.60
2023-04-12T21:37:01.981Z,0.50
2023-04-12T21:39:28.962Z,0.50
2023-04-12T21:41:58.099Z,0.50
2023-04-12T21:44:25.730Z,0.47
2023-04-12T21:46:52.621Z,0.35
2023-04-12T21:49:19.365Z,0.43
2023-04-12T21:51:47.027Z,0.50
2023-04-12T21:54:14.161Z,0.50
2023-04-12T21:56:40.824Z,0.73
2023-04-12T21:59:08.445Z,0.70
2023-04-12T22:01:35.297Z,0.50
2023-04-12T22:04:02.290Z,0.50
2023-04-12T22:06:29.068Z,0.60
2023-04-12T22:08:55.821Z,0.40
2023-04-12T22:11:22.587Z,0.50
2023-04-12T22:13:50.401Z,0.40
2023-04-12T22:16:17.326Z,0.32
2023-04-12T22:18:47.145Z,0.30
2023-04-12T22:21:13.836Z,0.30
2023-04-12T22:23:40.782Z,0.60
2023-04-12T22:26:08.701Z,0.25
2023-04-12T22:28:37.936Z,0.30
2023-04-12T22:31:06.036Z,0.30
2023-04-12T22:33:33.526Z,0.30
2023-04-12T22:36:02.139Z,0.30
2023-04-12T22:38:28.874Z,0.28
2023-04-12T22:41:02.259Z,0.30
2023-04-12T22:43:34.208Z,0.40
2023-04-12T22:46:04.479Z,0.30
2023-04-12T22:48:32.438Z,0.40
2023-04-12T22:51:02.261Z,0.45
2023-04-12T22:53:29.032Z,0.30
2023-04-12T22:55:57.007Z,0.60
2023-04-12T22:58:24.488Z,0.32
2023-04-12T23:00:51.278Z,0.43
2023-04-12T23:03:19.449Z,0.30
2023-04-12T23:05:46.959Z,0.30
2023-04-12T23:08:14.489Z,0.30
2023-04-12T23:10:44.546Z,0.40
2023-04-12T23:13:11.831Z,0.20
2023-04-12T23:15:42.606Z,0.20
2023-04-12T23:18:10.819Z,0.38
2023-04-12T23:20:38.122Z,0.30
2023-04-12T23:23:05.676Z,0.20
2023-04-12T23:25:41.229Z,0.20
2023-04-12T23:28:13.376Z,0.20
2023-04-12T23:30:47.828Z,0.28
2023-04-12T23:33:18.338Z,0.30
2023-04-12T23:35:46.741Z,0.30
2023-04-12T23:38:24.279Z,0.20
2023-04-12T23:40:53.773Z,0.40
2023-04-12T23:43:21.911Z,0.35
2023-04-12T23:45:49.185Z,0.25
2023-04-12T23:48:16.727Z,0.30
2023-04-12T23:50:46.513Z,0.30
2023-04-12T23:53:13.371Z,0.20
2023-04-12T23:55:41.985Z,0.82
2023-04-12T23:58:09.534Z,0.60
